Monday, January 21, 2019, 5:58 PM EST
Back to Local

KLWM, Lawrence Municipal Airport

Location: North Andover, MA, United States Lat: 42.717
Local Time: 5:58 PM EST (22:58 GMT) Lon: -71.133
Time Zone: US/Eastern Elev: 147 ft

Show me the last for .
Show Decoded

2019-01-21 17:41 METAR KLWM 212241Z 32015G25KT 3SM -SN OVC040 M17/M23 A2994 RMK AO2 PK WND
                 31031/2228 P0000 T11671228 =
2019-01-21 17:02 METAR KLWM 212202Z 31013G25KT 2 1/2SM -SN OVC034 M17/M21 A2991 RMK AO2 P0000
                 T11671211 =
2019-01-21 16:54 METAR KLWM 212154Z 30011G16KT 1 3/4SM -SN BKN035 OVC041 M17/M21 A2991 RMK AO2 PK
                 WND 28030/2055 SLP132 P0000 T11671211 =
2019-01-21 16:45 METAR KLWM 212145Z 29011G20KT 1 3/4SM -SN FEW030 OVC038 M17/M21 A2990 RMK AO2 PK
                 WND 28030/2055 P0000 T11671211 =
2019-01-21 16:24 METAR KLWM 212124Z 29012KT 3SM -SN FEW032 OVC038 M17/M21 A2989 RMK AO2 PK WND
                 28030/2055 P0000 T11671211 =
2019-01-21 16:14 METAR KLWM 212114Z 30012G21KT 2 1/2SM -SN OVC036 M17/M22 A2988 RMK AO2 PK WND
                 28030/2055 P0000 T11671217 =
2019-01-21 16:07 METAR KLWM 212107Z 31013G28KT 3SM -SN OVC038 M17/M22 A2988 RMK AO2 PK WND
                 28030/2055 P0000 T11671222 =
2019-01-21 15:58 METAR KLWM 212058Z 30017G30KT 2 1/2SM -SN OVC036 M17/M23 A2987 RMK AO2 PK WND
                 28030/2055 P0000 T11671228 =
2019-01-21 15:49 METAR KLWM 212049Z 30014G25KT 1 3/4SM -SN OVC036 M17/M22 A2987 RMK AO2 PK WND
                 29028/2026 UPB04E42SNB42 SLP117 P0000 60000 T11671222 53025 =
2019-01-21 15:48 METAR KLWM 212048Z 30015G25KT 1 3/4SM -SN OVC036 M17/M22 A2986 RMK AO2 PK WND
                 29028/2026 UPB04E42SNB42 P0000 =
2019-01-21 14:54 METAR KLWM 211954Z 31011G24KT 280V350 9SM SCT038 BKN048 OVC055 M16/M23 A2983 RMK
                 AO2 PK WND 31027/1859 UPB31E41 SLP104 P0000 T11611228 =
2019-01-21 13:54 METAR KLWM 211854Z 31018G25KT 10SM OVC049 M16/M24 A2980 RMK AO2 PK WND
                 31029/1800 SLP093 T11611244 =
2019-01-21 12:54 METAR KLWM 211754Z 31017G24KT 10SM BKN049 OVC055 M16/M24 A2979 RMK AO2 PK WND
                 31030/1711 UPB11E18SNE11 SLP092 P0000 60000 T11611244 11161 21172 51002 =
2019-01-21 12:05 METAR KLWM 211705Z 31013G18KT 3SM -SN BKN038 OVC045 M17/M23 A2979 RMK AO2 P0000
                 T11671228 =
2019-01-21 11:54 METAR KLWM 211654Z 32012G21KT 2 1/2SM -SN BKN036 OVC045 M17/M23 A2979 RMK AO2 PK
                 WND 32030/1624 SLP092 P0000 T11671228 =
2019-01-21 11:39 METAR KLWM 211639Z 30015G29KT 1 1/2SM -SN BKN030 OVC038 M17/M23 A2980 RMK AO2 PK
                 WND 32030/1624 P0000 T11721233 =
2019-01-21 11:20 METAR KLWM 211620Z 32014G24KT 1 1/2SM -SN BKN028 OVC040 M17/M23 A2980 RMK AO2 PK
                 WND 32026/1606 P0000 T11721228 =
2019-01-21 10:54 METAR KLWM 211554Z 30018G28KT 1 3/4SM -SN BKN038 OVC048 M17/M23 A2980 RMK AO2 PK
                 WND 29032/1504 UPE07SNB07 SLP094 P0000 T11721228 =
2019-01-21 10:37 METAR KLWM 211537Z 30020G28KT 1 3/4SM -SN BKN040 OVC048 M17/M23 A2980 RMK AO2 PK
                 WND 29032/1504 UPE07SNB07 P0000 T11721233 =
2019-01-21 10:32 METAR KLWM 211532Z 31015G21KT 3SM -SN FEW034 BKN043 OVC050 M17/M23 A2980 RMK AO2
                 PK WND 29032/1504 UPE07SNB07 P0000 T11671228 =
2019-01-21 10:14 METAR KLWM 211514Z 30014G26KT 2SM -SN BKN047 OVC055 M17/M23 A2980 RMK AO2 PK WND
                 29032/1504 UPE07SNB07 P0000 T11721233 =
2019-01-21 09:54 METAR KLWM 211454Z 30014G23KT 7SM UP OVC050 M17/M24 A2979 RMK AO2 PK WND
                 29026/1417 UPB43SNB02E43 SLP090 P0000 60000 T11671239 53035 =
2019-01-21 09:47 METAR KLWM 211447Z 31015G21KT 5SM UP OVC050 M17/M23 A2978 RMK AO2 PK WND
                 29026/1417 UPB43SNB02E43 P0000 T11671233 =
2019-01-21 09:21 METAR KLWM 211421Z 30012G26KT 2SM -SN OVC050 M17/M23 A2977 RMK AO2 PK WND
                 29026/1417 SNB02 P0000 T11721233 =
2019-01-21 08:54 METAR KLWM 211354Z 31013G21KT 4SM BLSN OVC049 M17/M23 A2975 RMK AO2
                 UPB25E51SNB12E25 SLP078 P0000 T11671233 =
2019-01-21 07:54 METAR KLWM 211254Z 30010G24KT 10SM OVC044 M17/M24 A2972 RMK AO2 PK WND
                 32026/1203 SLP066 T11671244 =
2019-01-21 06:54 METAR KLWM 211154Z 31012G22KT 10SM OVC044 M17/M24 A2968 RMK AO2 SLP054 70017
                 T11671244 11156 21167 52029 =
2019-01-21 05:54 METAR KLWM 211054Z AUTO 30014G24KT 10SM OVC043 M17/M24 A2965 RMK AO2 PK WND
                 32030/1021 SLP044 T11671244 =
2019-01-21 04:54 METAR KLWM 210954Z AUTO 30014G21KT 10SM OVC040 M17/M24 A2963 RMK AO2 PK WND
                 29026/0931 SLP036 T11671239 =
2019-01-21 03:54 METAR KLWM 210854Z AUTO 30011G18KT 10SM OVC035 M16/M23 A2960 RMK AO2 PK WND
                 30029/0825 SLP025 T11611233 51018 =
2019-01-21 02:54 METAR KLWM 210754Z AUTO 30012G20KT 10SM CLR M16/M23 A2959 RMK AO2 PK WND
                 29031/0730 SLP023 T11611233 =
2019-01-21 01:54 METAR KLWM 210654Z AUTO 30013G23KT 10SM CLR M16/M23 A2956 RMK AO2 PK WND
                 29026/0621 SLP012 T11561233 =
2019-01-21 00:54 METAR KLWM 210554Z AUTO 28010G19KT 10SM CLR M16/M23 A2955 RMK AO2 PK WND
                 29026/0518 SLP007 60000 T11561228 11050 21156 51022 =
2019-01-20 23:54 METAR KLWM 210454Z AUTO 29014G25KT 10SM CLR M15/M23 A2954 RMK AO2 PK WND
                 30030/0356 SLP004 T11501228 410111150 =
2019-01-20 22:54 METAR KLWM 210354Z AUTO 30018G34KT 10SM CLR M14/M22 A2950 RMK AO2 PK WND
                 31034/0349 SLP992 T11441217 =
2019-01-20 21:54 METAR KLWM 210254Z 30015G21KT 10SM CLR M13/M19 A2948 RMK AO2 PK WND 30033/0225
                 PRESRR SLP985 60000 T11281194 53045 =
2019-01-20 20:54 METAR KLWM 210154Z 31010G26KT 10SM SCT049 SCT060 M10/M17 A2942 RMK AO2 PK WND
                 30031/0137 SLP965 T11001167 =
2019-01-20 19:54 METAR KLWM 210054Z 30011G21KT 10SM BKN060 M06/M11 A2939 RMK AO2 SNE2359 SLP953
                 P0000 T10611111 =
2019-01-20 18:54 METAR KLWM 202354Z 30010G20KT 8SM -SN FEW043 BKN055 OVC070 M05/M08 A2934 RMK AO2
                 UPE19SNB39 SLP939 P0000 60002 I6003 T10501083 11050 21089 53006 =

Support USWX by starting your Amazon purchase here.